South Wellfleet, Massachusetts
Current Conditions -  °F | °C
As of 7:55 AM on Friday 19 Dec 2014 (Local Time) from KPVC Reporting Station
Overcast Overcast  
Wind Chill: 25°   Ceiling: 2900
Heat Index: 36°   Visibility: 10mi
Dew Point: 25°   Wind: 17mph
Humidity: 65%   Direction: 330°NNW
Pressure: 29.91"   Gusts: 23mph
Location:  41.92°N, 70°W
Report Text: KPVC 191255Z 33015G20KT 10SM BKN029 OVC037 02/M04 A2991 RMK AO1
Loading
Personal Weather Stations






























Interactive Weather Map New forecast layout! Learn more

10-Day Weather Forecast

Advertisements
Track Severe Weather on mobile